Time;durP1;ratioP1;P1;durP2;ratioP2;P2;SDS_P1;SDS_P2;PMS_P1;PMS_P2;Temp;Humidity;BMP_temperature;BMP_pressure;BME280_temperature;BME280_humidity;BME280_pressure;Samples;Min_cycle;Max_cycle;Signal;HPM_P1;HPM_P2
2021/01/20 00:02:06;;;;;;;3.50;1.50;;;21.00;47.30;;;;;;4985829;28;20045;-73
2021/01/20 00:04:32;;;;;;;3.85;1.60;;;21.00;47.30;;;;;;4983954;28;20034;-72
2021/01/20 00:06:58;;;;;;;3.08;1.33;;;20.90;47.30;;;;;;4985050;28;20758;-72
2021/01/20 00:09:23;;;;;;;3.15;1.30;;;20.90;47.20;;;;;;4984244;28;20030;-73
2021/01/20 00:11:49;;;;;;;2.75;1.30;;;20.90;47.30;;;;;;4971380;28;20438;-72
2021/01/20 00:14:15;;;;;;;3.17;1.70;;;20.90;47.30;;;;;;4984321;28;20038;-72
2021/01/20 00:16:41;;;;;;;2.72;1.33;;;20.90;47.30;;;;;;4974563;28;20509;-72
2021/01/20 00:19:08;;;;;;;3.28;1.42;;;20.90;47.30;;;;;;4985008;28;20124;-72
2021/01/20 00:21:35;;;;;;;2.50;1.23;;;20.90;47.30;;;;;;4987024;28;20030;-73
2021/01/20 00:24:00;;;;;;;2.60;1.40;;;20.90;47.30;;;;;;4980515;28;20022;-72
2021/01/20 00:26:26;;;;;;;3.45;1.83;;;20.80;47.30;;;;;;4984446;28;20022;-73
2021/01/20 00:28:52;;;;;;;2.92;1.40;;;20.80;47.30;;;;;;4970014;28;20027;-72
2021/01/20 00:31:17;;;;;;;3.22;1.50;;;20.80;47.30;;;;;;4982515;28;20096;-72
2021/01/20 00:33:43;;;;;;;3.40;1.38;;;20.80;47.40;;;;;;4970236;28;20550;-72
2021/01/20 00:36:09;;;;;;;2.53;1.30;;;20.80;47.40;;;;;;4971201;28;20030;-72
2021/01/20 00:38:35;;;;;;;2.97;1.20;;;20.80;47.40;;;;;;4975960;28;20041;-72
2021/01/20 00:41:01;;;;;;;3.05;1.40;;;20.70;47.40;;;;;;4983348;28;20030;-72
2021/01/20 00:43:27;;;;;;;3.00;1.45;;;20.70;47.40;;;;;;4987589;28;20041;-72
2021/01/20 00:45:52;;;;;;;3.10;1.42;;;20.70;47.40;;;;;;4985500;28;20033;-72
2021/01/20 00:48:18;;;;;;;2.53;1.30;;;20.70;47.40;;;;;;4985639;28;20131;-72
2021/01/20 00:50:43;;;;;;;3.17;1.27;;;20.70;47.40;;;;;;4973874;28;20130;-72
2021/01/20 00:53:09;;;;;;;3.17;1.20;;;20.70;47.40;;;;;;4984838;28;20474;-72
2021/01/20 00:55:34;;;;;;;2.58;1.20;;;20.70;47.40;;;;;;4984022;28;20035;-72
2021/01/20 00:58:00;;;;;;;3.35;1.30;;;20.70;47.50;;;;;;4988371;28;20418;-72
2021/01/20 01:00:26;;;;;;;2.72;1.30;;;20.60;47.40;;;;;;4971703;28;20034;-72
2021/01/20 01:02:51;;;;;;;2.50;1.08;;;20.70;47.50;;;;;;4986352;28;20027;-72
2021/01/20 01:05:17;;;;;;;2.70;1.30;;;20.60;47.50;;;;;;4975961;28;20027;-72
2021/01/20 01:07:43;;;;;;;2.92;1.40;;;20.60;47.50;;;;;;4980927;28;20030;-72
2021/01/20 01:10:10;;;;;;;3.53;1.83;;;20.60;47.50;;;;;;4971677;28;20033;-72
2021/01/20 01:12:36;;;;;;;2.22;1.20;;;20.60;47.50;;;;;;4982133;28;20103;-72
2021/01/20 01:15:03;;;;;;;2.50;1.20;;;20.60;47.50;;;;;;4978982;28;20039;-72
2021/01/20 01:17:29;;;;;;;3.08;1.38;;;20.60;47.50;;;;;;4986803;28;20034;-72
2021/01/20 01:19:55;;;;;;;2.63;1.20;;;20.60;47.50;;;;;;4965290;28;20038;-72
2021/01/20 01:22:20;;;;;;;2.58;1.20;;;20.50;47.50;;;;;;4971523;28;20469;-72
2021/01/20 01:24:46;;;;;;;2.65;1.10;;;20.50;47.50;;;;;;4986835;28;20624;-72
2021/01/20 01:27:11;;;;;;;3.10;1.48;;;20.50;47.50;;;;;;4983882;28;20030;-72
2021/01/20 01:29:37;;;;;;;2.17;1.10;;;20.50;47.50;;;;;;4974718;28;20043;-72
2021/01/20 01:32:03;;;;;;;1.95;0.95;;;20.50;47.60;;;;;;4977033;28;20422;-72
2021/01/20 01:34:28;;;;;;;2.25;1.20;;;20.50;47.60;;;;;;4984990;28;20034;-72
2021/01/20 01:36:54;;;;;;;1.88;1.10;;;20.50;47.60;;;;;;4982187;28;20444;-72
2021/01/20 01:39:19;;;;;;;2.70;1.30;;;20.50;47.60;;;;;;4969817;28;20019;-73
2021/01/20 01:41:45;;;;;;;2.10;1.10;;;20.50;47.60;;;;;;4968405;28;20054;-72
2021/01/20 01:44:11;;;;;;;2.17;1.38;;;20.40;47.60;;;;;;4976731;28;20090;-72
2021/01/20 01:46:36;;;;;;;2.40;1.02;;;20.40;47.60;;;;;;4968831;28;20359;-72
2021/01/20 01:49:02;;;;;;;2.38;1.10;;;20.40;47.60;;;;;;4983091;28;20081;-72
2021/01/20 01:51:28;;;;;;;2.40;1.10;;;20.40;47.60;;;;;;4983441;28;20042;-72
2021/01/20 01:53:54;;;;;;;2.38;1.10;;;20.40;47.60;;;;;;4979470;28;20126;-72
2021/01/20 01:56:23;;;;;;;2.28;1.00;;;20.40;47.60;;;;;;4969593;28;20093;-72
2021/01/20 01:58:52;;;;;;;1.58;1.00;;;20.40;47.60;;;;;;4971209;28;20038;-72
2021/01/20 02:01:19;;;;;;;2.50;1.30;;;20.40;47.60;;;;;;4983868;28;20081;-72
2021/01/20 02:03:48;;;;;;;1.85;0.90;;;20.40;47.60;;;;;;4984082;28;20030;-72
2021/01/20 02:06:14;;;;;;;2.30;1.23;;;20.30;47.60;;;;;;4973890;28;20023;-72
2021/01/20 02:08:41;;;;;;;2.05;1.05;;;20.40;47.70;;;;;;4980086;28;20034;-72
2021/01/20 02:11:49;;;;;;;1.77;0.90;;;20.30;47.70;;;;;;4988286;28;20136;-72
2021/01/20 02:14:24;;;;;;;2.20;1.00;;;20.30;47.70;;;;;;4969258;28;20430;-72
2021/01/20 02:17:32;;;;;;;2.05;0.95;;;20.30;47.70;;;;;;4980114;28;20282;-72
2021/01/20 02:20:03;;;;;;;2.40;1.05;;;20.30;47.70;;;;;;4979733;28;20465;-72
2021/01/20 02:22:40;;;;;;;2.15;1.00;;;20.30;47.70;;;;;;4982128;28;20038;-72
2021/01/20 02:25:12;;;;;;;2.03;0.88;;;20.30;47.70;;;;;;4976806;28;20358;-72
2021/01/20 02:28:05;;;;;;;2.08;1.00;;;20.30;47.70;;;;;;4972473;28;20026;-72
2021/01/20 02:30:33;;;;;;;2.15;1.08;;;20.30;47.80;;;;;;4971499;28;20045;-72
2021/01/20 02:33:01;;;;;;;2.17;1.17;;;20.20;47.70;;;;;;4978768;28;20034;-72
2021/01/20 02:35:28;;;;;;;1.90;1.00;;;20.20;47.80;;;;;;4972465;28;20478;-72
2021/01/20 02:37:55;;;;;;;1.83;1.08;;;20.20;47.80;;;;;;4990309;28;20616;-72
2021/01/20 02:40:21;;;;;;;2.00;0.98;;;20.20;47.70;;;;;;4974155;28;20023;-72
2021/01/20 02:42:47;;;;;;;1.80;1.05;;;20.20;47.80;;;;;;4975145;28;20111;-72
2021/01/20 02:45:14;;;;;;;2.03;1.00;;;20.20;47.80;;;;;;4994733;28;20050;-72
2021/01/20 02:47:41;;;;;;;1.50;0.80;;;20.20;47.80;;;;;;4984790;28;20037;-71
2021/01/20 02:50:08;;;;;;;1.83;0.90;;;20.20;47.80;;;;;;4984508;28;20054;-72
2021/01/20 02:52:49;;;;;;;1.95;1.00;;;20.20;47.80;;;;;;4980699;28;20161;-73
2021/01/20 02:55:21;;;;;;;1.70;0.90;;;20.20;47.80;;;;;;4991354;28;20034;-72
2021/01/20 02:57:55;;;;;;;1.45;0.90;;;20.20;47.80;;;;;;4982239;28;20390;-72
2021/01/20 03:00:23;;;;;;;1.63;0.90;;;20.20;47.80;;;;;;4978012;28;20519;-71
2021/01/20 03:02:51;;;;;;;1.50;0.90;;;20.20;47.80;;;;;;4990192;28;20229;-73
2021/01/20 03:05:18;;;;;;;1.85;0.98;;;20.20;47.80;;;;;;4996020;28;20439;-72
2021/01/20 03:07:44;;;;;;;1.50;1.00;;;20.20;47.80;;;;;;4973420;28;20058;-72
2021/01/20 03:10:11;;;;;;;1.73;0.98;;;20.20;47.80;;;;;;4978186;28;20105;-71
2021/01/20 03:12:37;;;;;;;1.73;0.85;;;20.20;47.80;;;;;;4977552;28;20050;-71
2021/01/20 03:15:09;;;;;;;3.03;1.00;;;20.20;47.80;;;;;;4986607;28;20027;-72
2021/01/20 03:17:34;;;;;;;1.50;0.90;;;20.20;47.80;;;;;;4991327;28;20023;-72
2021/01/20 03:20:00;;;;;;;1.65;0.80;;;20.10;47.70;;;;;;4975757;28;20504;-71
2021/01/20 03:22:25;;;;;;;2.10;0.90;;;20.10;47.70;;;;;;4984793;28;20148;-71
2021/01/20 03:24:51;;;;;;;1.95;1.00;;;20.10;47.70;;;;;;5001871;28;20061;-72
2021/01/20 03:27:17;;;;;;;1.75;0.90;;;20.10;47.70;;;;;;4989149;28;20042;-71
2021/01/20 03:29:42;;;;;;;1.52;0.90;;;20.10;47.70;;;;;;4981589;28;20417;-71
2021/01/20 03:32:08;;;;;;;2.08;1.00;;;20.10;47.70;;;;;;4972538;28;20042;-71
2021/01/20 03:34:34;;;;;;;1.27;0.88;;;20.10;47.80;;;;;;4984813;28;20034;-71
2021/01/20 03:37:02;;;;;;;1.88;0.90;;;20.10;47.80;;;;;;4975979;28;20409;-71
2021/01/20 03:39:27;;;;;;;1.58;0.90;;;20.10;47.70;;;;;;4980893;28;20030;-71
2021/01/20 03:41:53;;;;;;;1.65;1.00;;;20.10;47.70;;;;;;4985623;28;20054;-71
2021/01/20 03:44:19;;;;;;;1.88;1.00;;;20.10;47.70;;;;;;4983651;28;20034;-72
2021/01/20 03:46:44;;;;;;;1.63;0.90;;;20.10;47.70;;;;;;4971335;28;20124;-71
2021/01/20 03:49:10;;;;;;;1.48;0.80;;;20.10;47.70;;;;;;4975838;28;20022;-71
2021/01/20 03:51:36;;;;;;;1.35;0.90;;;20.10;47.70;;;;;;4969369;28;20077;-71
2021/01/20 03:54:02;;;;;;;1.70;0.80;;;20.10;47.70;;;;;;4974399;28;20037;-71
2021/01/20 03:56:27;;;;;;;1.33;0.82;;;20.10;47.80;;;;;;4988470;28;20053;-72
2021/01/20 03:58:53;;;;;;;1.73;1.00;;;20.10;47.70;;;;;;4982575;28;20042;-72
2021/01/20 04:01:18;;;;;;;1.63;0.90;;;20.10;47.80;;;;;;4976468;28;20042;-72
2021/01/20 04:03:44;;;;;;;1.63;0.85;;;20.10;47.80;;;;;;4988781;28;20041;-71
2021/01/20 04:06:10;;;;;;;1.48;0.80;;;20.10;47.80;;;;;;4978770;28;20050;-72
2021/01/20 04:08:35;;;;;;;1.60;0.80;;;20.10;47.80;;;;;;4977768;28;20144;-72
2021/01/20 04:11:01;;;;;;;1.30;0.80;;;20.00;48.10;;;;;;4980196;28;20606;-71
2021/01/20 04:13:27;;;;;;;1.60;0.90;;;20.00;47.70;;;;;;4978403;28;20106;-72
2021/01/20 04:15:52;;;;;;;1.35;0.82;;;20.00;47.80;;;;;;4971845;28;20030;-72
2021/01/20 04:18:18;;;;;;;1.48;0.80;;;20.00;47.80;;;;;;4970932;28;20039;-72
2021/01/20 04:20:43;;;;;;;1.70;0.82;;;20.00;47.80;;;;;;4986177;28;20407;-72
2021/01/20 04:23:09;;;;;;;1.70;0.85;;;20.00;47.80;;;;;;4979858;28;20085;-72
2021/01/20 04:25:35;;;;;;;1.90;0.93;;;20.00;47.80;;;;;;4986229;28;20133;-72
2021/01/20 04:28:00;;;;;;;1.50;1.00;;;20.00;47.80;;;;;;4971479;28;20057;-72
2021/01/20 04:30:26;;;;;;;1.20;0.88;;;20.00;47.90;;;;;;4969513;28;20035;-72
2021/01/20 04:32:52;;;;;;;1.52;0.85;;;20.00;47.90;;;;;;4970306;28;20082;-71
2021/01/20 04:35:18;;;;;;;2.08;1.00;;;20.00;47.90;;;;;;4981412;28;20474;-72
2021/01/20 04:37:44;;;;;;;1.55;0.90;;;20.00;47.90;;;;;;4984003;28;20050;-71
2021/01/20 04:40:10;;;;;;;1.65;0.88;;;20.00;47.90;;;;;;4978974;28;20489;-71
2021/01/20 04:42:36;;;;;;;1.50;0.90;;;20.00;48.00;;;;;;4972138;28;20031;-72
2021/01/20 04:45:02;;;;;;;1.40;0.90;;;20.00;48.00;;;;;;4970092;28;20031;-71
2021/01/20 04:47:28;;;;;;;1.38;0.80;;;20.00;48.00;;;;;;4984078;28;20026;-72
2021/01/20 04:49:54;;;;;;;2.03;0.90;;;19.90;48.00;;;;;;4976344;28;20034;-72
2021/01/20 04:52:22;;;;;;;1.38;0.82;;;19.90;48.00;;;;;;4985173;28;20061;-72
2021/01/20 04:54:49;;;;;;;1.40;1.00;;;19.90;48.00;;;;;;4988292;28;20069;-72
2021/01/20 04:57:15;;;;;;;1.38;0.80;;;19.90;48.00;;;;;;4986938;28;20038;-72
2021/01/20 04:59:42;;;;;;;2.28;1.10;;;19.90;48.00;;;;;;4983450;28;20175;-71
2021/01/20 05:02:10;;;;;;;1.63;0.90;;;19.90;48.00;;;;;;4975910;28;20073;-72
2021/01/20 05:04:39;;;;;;;1.67;0.90;;;19.90;48.10;;;;;;4987667;28;20113;-71
2021/01/20 05:07:06;;;;;;;1.45;0.80;;;19.90;48.10;;;;;;4968826;28;20335;-72
2021/01/20 05:09:32;;;;;;;1.10;0.70;;;19.90;48.60;;;;;;4990290;28;20034;-72
2021/01/20 05:11:58;;;;;;;1.30;0.70;;;19.90;48.10;;;;;;4976273;28;20022;-72
2021/01/20 05:14:23;;;;;;;1.60;0.80;;;19.90;48.20;;;;;;4982453;28;20363;-72
2021/01/20 05:16:52;;;;;;;0.95;0.70;;;19.90;48.20;;;;;;4986032;28;20037;-72
2021/01/20 05:19:34;;;;;;;1.67;0.80;;;19.80;48.10;;;;;;4985897;28;20031;-72
2021/01/20 05:22:05;;;;;;;1.30;0.70;;;19.80;48.20;;;;;;4982890;28;20027;-72
2021/01/20 05:24:35;;;;;;;1.40;0.80;;;19.80;48.20;;;;;;4999800;28;20077;-72
2021/01/20 05:27:02;;;;;;;1.33;0.80;;;19.80;48.20;;;;;;4973503;28;20085;-72
2021/01/20 05:29:28;;;;;;;1.17;0.80;;;19.80;48.20;;;;;;4981321;28;20034;-72
2021/01/20 05:31:54;;;;;;;1.63;0.80;;;19.80;48.20;;;;;;4979104;28;20042;-71
2021/01/20 05:34:32;;;;;;;1.42;0.80;;;19.80;48.20;;;;;;4985065;28;20018;-72
2021/01/20 05:37:01;;;;;;;1.13;0.80;;;19.80;48.20;;;;;;4975131;28;20080;-72
2021/01/20 05:39:27;;;;;;;;;;;19.80;48.20;;;;;;4978195;28;20026;-71
2021/01/20 05:42:12;;;;;;;1.13;0.68;;;19.80;48.20;;;;;;4980201;28;19914;-72
2021/01/20 05:44:39;;;;;;;2.40;0.95;;;19.80;48.20;;;;;;4978113;28;20030;-71
2021/01/20 05:47:11;;;;;;;0.90;0.70;;;19.80;48.20;;;;;;4977880;28;20034;-72
2021/01/20 05:49:38;;;;;;;1.38;0.80;;;19.80;48.20;;;;;;4978530;28;20045;-72
2021/01/20 05:52:15;;;;;;;1.42;0.82;;;19.80;48.30;;;;;;4976162;28;20034;-72
2021/01/20 05:54:42;;;;;;;1.33;0.80;;;19.80;48.30;;;;;;4980167;28;20023;-70
2021/01/20 05:57:19;;;;;;;1.55;0.88;;;19.80;48.30;;;;;;4981953;28;20116;-72
2021/01/20 05:59:49;;;;;;;1.67;0.88;;;19.80;48.30;;;;;;4981924;28;20041;-72
2021/01/20 06:02:17;;;;;;;1.52;0.90;;;19.80;48.40;;;;;;4970531;28;20047;-71
2021/01/20 06:04:43;;;;;;;1.88;0.90;;;19.80;48.30;;;;;;4982897;28;20038;-72
2021/01/20 06:07:13;;;;;;;1.75;1.00;;;19.80;48.30;;;;;;4987538;28;20441;-73
2021/01/20 06:09:41;;;;;;;1.83;1.00;;;19.80;48.30;;;;;;4976110;28;20043;-72
2021/01/20 06:12:08;;;;;;;1.50;0.90;;;19.80;48.20;;;;;;4968559;28;20023;-72
2021/01/20 06:14:34;;;;;;;1.83;0.80;;;19.80;48.30;;;;;;4968641;28;20027;-71
2021/01/20 06:17:16;;;;;;;1.75;1.02;;;19.80;48.30;;;;;;4992602;28;20023;-72
2021/01/20 06:19:50;;;;;;;1.50;0.80;;;19.80;48.30;;;;;;4981622;28;20113;-70
2021/01/20 06:22:17;;;;;;;1.45;0.90;;;19.80;48.30;;;;;;4981195;28;20027;-70
2021/01/20 06:24:42;;;;;;;1.92;0.90;;;19.80;48.40;;;;;;4983324;28;20037;-71
2021/01/20 06:27:15;;;;;;;1.25;0.80;;;19.80;48.40;;;;;;4979306;28;20035;-71
2021/01/20 06:29:56;;;;;;;1.52;0.80;;;19.80;48.40;;;;;;4972012;28;20137;-71
2021/01/20 06:32:24;;;;;;;1.40;0.80;;;19.80;48.40;;;;;;4959488;28;20138;-71
2021/01/20 06:34:51;;;;;;;1.70;0.98;;;19.80;48.50;;;;;;4960963;28;20050;-71
2021/01/20 06:37:36;;;;;;;1.75;0.88;;;19.80;48.50;;;;;;4964705;28;20104;-72
2021/01/20 06:40:23;;;;;;;2.08;0.90;;;19.80;48.50;;;;;;4958536;28;20457;-70
2021/01/20 06:42:50;;;;;;;1.83;0.88;;;19.80;48.50;;;;;;4965590;28;20034;-71
2021/01/20 06:45:22;;;;;;;1.83;0.90;;;19.80;48.60;;;;;;4964487;28;20031;-71
2021/01/20 06:47:59;;;;;;;1.73;0.90;;;19.80;48.60;;;;;;4964393;28;20027;-68
2021/01/20 06:50:29;;;;;;;1.70;0.90;;;19.80;48.60;;;;;;4960002;28;20034;-69
2021/01/20 06:53:05;;;;;;;1.02;0.77;;;19.80;48.70;;;;;;4955439;28;20027;-69
2021/01/20 06:55:35;;;;;;;1.83;0.88;;;19.80;48.70;;;;;;4959351;28;20028;-70
2021/01/20 06:58:30;;;;;;;2.25;0.95;;;19.80;48.70;;;;;;4963592;28;20031;-71
2021/01/20 07:00:59;;;;;;;1.77;0.80;;;19.80;48.70;;;;;;4962874;28;20058;-69
2021/01/20 07:03:41;;;;;;;1.80;0.90;;;19.80;48.70;;;;;;4962302;28;20034;-68
2021/01/20 07:06:35;;;;;;;1.13;0.73;;;19.80;48.70;;;;;;4964143;28;20441;-68
2021/01/20 07:09:02;;;;;;;2.15;1.00;;;19.70;48.70;;;;;;4960884;28;20069;-68
2021/01/20 07:11:28;;;;;;;3.47;1.20;;;19.70;48.70;;;;;;4954386;28;20049;-67
2021/01/20 07:13:54;;;;;;;1.98;0.90;;;19.80;50.30;;;;;;4970732;28;20023;-68
2021/01/20 07:16:20;;;;;;;2.20;1.00;;;19.90;50.80;;;;;;4965768;28;20058;-68
2021/01/20 07:18:48;;;;;;;3.78;1.20;;;20.20;50.90;;;;;;4954421;28;20678;-68
2021/01/20 07:21:14;;;;;;;2.03;1.00;;;20.50;50.40;;;;;;4958280;28;20390;-69
2021/01/20 07:23:40;;;;;;;2.10;0.93;;;20.70;50.10;;;;;;4968716;28;20388;-68
2021/01/20 07:26:06;;;;;;;2.75;1.00;;;20.90;50.00;;;;;;4965186;28;20046;-67
2021/01/20 07:28:34;;;;;;;2.70;0.90;;;21.00;49.80;;;;;;4962205;28;20035;-68
2021/01/20 07:31:14;;;;;;;1.90;0.90;;;21.20;49.70;;;;;;4965271;28;20455;-67
2021/01/20 07:33:49;;;;;;;1.80;0.80;;;21.50;49.60;;;;;;4964933;28;20039;-68
2021/01/20 07:36:17;;;;;;;1.80;0.90;;;21.60;49.40;;;;;;4964029;28;20031;-68
2021/01/20 07:38:47;;;;;;;1.98;0.88;;;21.70;49.50;;;;;;4967876;28;20023;-68
2021/01/20 07:41:17;;;;;;;1.88;0.90;;;21.90;49.70;;;;;;4959150;28;20106;-68
2021/01/20 07:43:42;;;;;;;;;;;22.10;49.70;;;;;;4969594;28;20490;-68
2021/01/20 07:46:16;;;;;;;0.60;0.50;;;22.10;49.10;;;;;;4967652;28;19961;-69
2021/01/20 07:48:42;;;;;;;0.80;0.50;;;22.00;49.10;;;;;;4955461;28;20034;-67
2021/01/20 07:51:14;;;;;;;0.68;0.52;;;21.90;49.40;;;;;;4963397;28;20042;-68
2021/01/20 07:53:40;;;;;;;0.90;0.60;;;21.90;50.00;;;;;;4959877;28;20121;-69
2021/01/20 07:56:05;;;;;;;2.15;0.80;;;21.80;50.30;;;;;;4964446;28;20531;-68
2021/01/20 07:58:31;;;;;;;2.25;0.77;;;21.90;51.00;;;;;;4967382;28;20070;-68
2021/01/20 08:00:57;;;;;;;0.63;0.50;;;22.00;51.60;;;;;;4977835;28;20071;-68
2021/01/20 08:03:34;;;;;;;0.70;0.60;;;22.10;50.80;;;;;;4960684;28;20035;-68
2021/01/20 08:06:10;;;;;;;0.85;0.57;;;22.10;51.10;;;;;;4964337;28;20038;-70
2021/01/20 08:08:55;;;;;;;0.93;0.55;;;22.10;52.00;;;;;;4964376;28;20019;-69
2021/01/20 08:11:23;;;;;;;0.85;0.55;;;22.10;51.70;;;;;;4966276;28;20081;-70
2021/01/20 08:13:50;;;;;;;1.02;0.65;;;22.10;51.60;;;;;;4966926;28;20431;-68
2021/01/20 08:16:17;;;;;;;1.05;0.65;;;22.10;52.30;;;;;;4962081;28;20481;-70
2021/01/20 08:18:45;;;;;;;0.98;0.60;;;22.10;52.40;;;;;;4956540;28;20821;-68
2021/01/20 08:21:12;;;;;;;1.20;0.70;;;22.20;53.40;;;;;;4963375;28;20034;-69
2021/01/20 08:23:54;;;;;;;1.52;0.70;;;22.20;53.20;;;;;;4957621;28;20349;-68
2021/01/20 08:26:24;;;;;;;1.48;0.80;;;22.20;51.90;;;;;;4972467;28;20097;-70
2021/01/20 08:29:07;;;;;;;1.08;0.68;;;22.20;51.30;;;;;;4975835;28;20089;-69
2021/01/20 08:31:33;;;;;;;1.58;0.80;;;22.20;51.20;;;;;;4988755;28;20042;-70
2021/01/20 08:34:18;;;;;;;0.98;0.60;;;22.20;51.60;;;;;;4979670;28;20031;-69
2021/01/20 08:37:03;;;;;;;1.27;0.73;;;22.20;51.20;;;;;;4992524;28;20065;-69
2021/01/20 08:39:31;;;;;;;1.63;0.70;;;22.30;51.10;;;;;;4962077;28;20134;-69
2021/01/20 08:42:16;;;;;;;1.20;0.70;;;22.30;51.30;;;;;;4973052;28;20031;-70
2021/01/20 08:45:06;;;;;;;1.35;0.65;;;22.30;51.10;;;;;;4971877;28;20034;-70
2021/01/20 08:47:52;;;;;;;1.75;0.90;;;22.30;51.00;;;;;;4970625;28;20230;-69
2021/01/20 08:50:31;;;;;;;4.85;3.30;;;22.30;51.10;;;;;;4972651;28;20248;-69
2021/01/20 08:53:26;;;;;;;6.60;4.60;;;22.20;35.40;;;;;;4966604;28;20355;-68
2021/01/20 08:55:53;;;;;;;4.47;2.60;;;21.80;37.00;;;;;;4969795;28;20031;-70
2021/01/20 08:58:26;;;;;;;3.85;2.33;;;21.70;40.40;;;;;;4971033;28;20362;-69
2021/01/20 09:00:54;;;;;;;3.63;1.95;;;21.80;42.00;;;;;;4964121;28;20038;-69
2021/01/20 09:03:27;;;;;;;3.20;1.88;;;21.80;43.10;;;;;;4965399;28;20023;-70
2021/01/20 09:05:55;;;;;;;3.03;1.60;;;21.90;43.80;;;;;;4967893;28;20038;-72
2021/01/20 09:08:22;;;;;;;3.13;1.75;;;22.00;44.50;;;;;;4962006;28;20026;-71
2021/01/20 09:10:49;;;;;;;2.83;1.65;;;22.10;45.00;;;;;;4988696;28;20035;-72
2021/01/20 09:13:17;;;;;;;3.00;1.67;;;22.10;45.90;;;;;;4973425;28;20098;-69
2021/01/20 09:15:47;;;;;;;2.72;1.40;;;22.20;45.70;;;;;;4969395;28;20118;-69
2021/01/20 09:18:14;;;;;;;2.85;1.40;;;22.20;46.10;;;;;;4963823;28;20046;-68
2021/01/20 09:20:39;;;;;;;1.85;1.20;;;22.20;46.30;;;;;;4967190;28;20031;-68
2021/01/20 09:23:06;;;;;;;2.58;1.30;;;22.20;46.50;;;;;;4956076;28;20063;-68
2021/01/20 09:25:32;;;;;;;2.40;1.30;;;22.30;46.80;;;;;;4963774;28;20121;-67
2021/01/20 09:27:58;;;;;;;1.52;1.08;;;22.30;47.10;;;;;;4969225;28;20091;-69
2021/01/20 09:30:23;;;;;;;2.35;1.23;;;22.30;47.30;;;;;;4967132;28;20066;-69
2021/01/20 09:32:49;;;;;;;2.03;1.20;;;22.30;47.40;;;;;;4958192;28;20030;-69
2021/01/20 09:35:16;;;;;;;1.90;1.13;;;22.40;47.50;;;;;;4946356;28;20031;-68
2021/01/20 09:37:43;;;;;;;2.40;1.33;;;22.40;47.70;;;;;;4958203;28;20118;-68
2021/01/20 09:40:11;;;;;;;2.40;1.40;;;22.40;48.30;;;;;;4966631;28;20073;-69
2021/01/20 09:42:39;;;;;;;2.40;1.50;;;22.60;48.50;;;;;;4974462;28;20027;-69
2021/01/20 09:45:07;;;;;;;3.45;1.63;;;22.90;48.00;;;;;;4968272;28;20034;-69
2021/01/20 09:47:34;;;;;;;2.30;1.30;;;23.20;47.70;;;;;;4959437;28;20046;-68
2021/01/20 09:50:02;;;;;;;1.52;1.10;;;23.50;47.30;;;;;;4957584;28;20053;-69
2021/01/20 09:52:27;;;;;;;1.90;1.10;;;23.60;47.00;;;;;;4967643;28;20046;-68
2021/01/20 09:54:54;;;;;;;1.88;1.05;;;23.50;47.20;;;;;;4967884;28;20034;-69
2021/01/20 09:57:20;;;;;;;1.70;1.00;;;23.40;47.40;;;;;;4961697;28;20106;-68
2021/01/20 09:59:47;;;;;;;1.65;0.90;;;23.40;47.60;;;;;;4964488;28;20475;-68
2021/01/20 10:02:13;;;;;;;1.88;1.20;;;23.30;47.80;;;;;;4961412;28;20036;-68
2021/01/20 10:04:38;;;;;;;3.45;2.00;;;23.30;44.20;;;;;;4965357;28;20061;-67
2021/01/20 10:07:04;;;;;;;3.22;1.92;;;23.10;38.50;;;;;;4965855;28;20064;-69
2021/01/20 10:09:32;;;;;;;2.78;1.63;;;23.00;38.40;;;;;;4961292;28;20038;-69
2021/01/20 10:11:57;;;;;;;2.80;1.73;;;22.80;39.20;;;;;;4960928;28;20030;-69
2021/01/20 10:14:23;;;;;;;3.70;1.83;;;22.80;39.90;;;;;;4947292;28;20043;-68
2021/01/20 10:16:48;;;;;;;2.80;1.63;;;22.80;40.20;;;;;;4951844;28;20027;-69
2021/01/20 10:19:15;;;;;;;5.43;2.10;;;22.70;40.40;;;;;;4962966;28;20537;-68
2021/01/20 10:21:41;;;;;;;3.03;1.70;;;22.70;40.60;;;;;;4962878;28;20062;-68
2021/01/20 10:24:09;;;;;;;2.05;1.30;;;22.70;41.10;;;;;;4963871;28;20070;-70
2021/01/20 10:26:38;;;;;;;1.77;1.20;;;22.70;41.90;;;;;;4967643;28;20418;-69
2021/01/20 10:29:04;;;;;;;;;;;22.70;42.30;;;;;;4961218;28;20081;-70
2021/01/20 10:31:32;;;;;;;2.50;1.27;;;22.80;42.80;;;;;;4961953;28;19918;-70
2021/01/20 10:33:58;;;;;;;2.05;1.15;;;22.80;43.10;;;;;;4958437;28;20038;-70
2021/01/20 10:36:24;;;;;;;2.08;1.25;;;22.90;43.50;;;;;;4954667;28;20046;-70
2021/01/20 10:38:50;;;;;;;1.92;1.10;;;23.00;43.90;;;;;;4952633;28;20031;-70
2021/01/20 10:41:18;;;;;;;2.15;1.27;;;23.00;44.20;;;;;;4969749;28;20375;-68
2021/01/20 10:43:44;;;;;;;2.03;1.10;;;23.00;44.50;;;;;;4971396;28;20022;-69
2021/01/20 10:46:10;;;;;;;1.70;1.00;;;23.00;44.80;;;;;;4962549;28;20378;-69
2021/01/20 10:48:35;;;;;;;2.22;1.23;;;23.10;45.00;;;;;;4966152;28;20130;-70
2021/01/20 10:51:01;;;;;;;1.90;1.10;;;23.10;45.20;;;;;;4962042;28;20034;-69
2021/01/20 10:53:27;;;;;;;2.00;1.10;;;23.10;45.40;;;;;;4971222;28;20038;-70
2021/01/20 10:55:52;;;;;;;1.95;1.10;;;23.20;45.60;;;;;;4957128;28;20481;-68
2021/01/20 10:58:18;;;;;;;1.75;1.02;;;23.20;45.80;;;;;;4952797;28;20023;-70
2021/01/20 11:00:47;;;;;;;2.00;1.10;;;23.20;46.10;;;;;;4950721;28;20102;-71
2021/01/20 11:03:13;;;;;;;2.10;1.10;;;23.30;46.30;;;;;;4962903;28;20153;-70
2021/01/20 11:05:39;;;;;;;2.03;1.08;;;23.20;46.40;;;;;;4959181;28;20343;-68
2021/01/20 11:08:05;;;;;;;2.00;1.05;;;23.30;46.50;;;;;;4951922;28;20027;-71
2021/01/20 11:10:31;;;;;;;1.80;1.10;;;23.30;46.70;;;;;;4965827;28;20057;-69
2021/01/20 11:12:56;;;;;;;1.85;1.10;;;23.30;46.80;;;;;;4970923;28;20035;-69
2021/01/20 11:15:22;;;;;;;2.28;1.10;;;23.30;46.80;;;;;;4962408;28;20035;-70
2021/01/20 11:17:49;;;;;;;1.15;0.90;;;23.40;47.00;;;;;;4955037;28;20458;-70
2021/01/20 11:20:16;;;;;;;2.65;1.20;;;23.40;47.10;;;;;;4956201;28;20038;-68
2021/01/20 11:22:42;;;;;;;1.65;0.85;;;23.40;47.30;;;;;;4968003;28;20027;-69
2021/01/20 11:25:08;;;;;;;2.05;1.00;;;23.40;47.50;;;;;;4969629;28;20026;-70
2021/01/20 11:27:34;;;;;;;1.77;1.05;;;23.40;47.50;;;;;;4968289;28;20125;-71
2021/01/20 11:29:59;;;;;;;1.73;1.10;;;23.50;48.10;;;;;;4969471;28;20034;-70
2021/01/20 11:32:25;;;;;;;1.45;1.05;;;23.50;48.20;;;;;;4963849;28;20070;-70
2021/01/20 11:34:51;;;;;;;2.25;1.38;;;23.50;47.50;;;;;;4957373;28;20052;-70
2021/01/20 11:37:16;;;;;;;2.38;1.20;;;23.50;45.90;;;;;;4957677;28;20027;-70
2021/01/20 11:39:42;;;;;;;2.65;1.60;;;23.40;44.60;;;;;;4958724;28;20042;-71
2021/01/20 11:42:08;;;;;;;2.55;1.42;;;23.40;44.30;;;;;;4956033;28;20027;-70
2021/01/20 11:44:35;;;;;;;2.13;1.20;;;23.30;44.60;;;;;;4959064;28;20031;-70
2021/01/20 11:47:02;;;;;;;2.10;1.20;;;23.30;44.70;;;;;;4957095;28;20112;-69
2021/01/20 11:49:29;;;;;;;1.90;1.10;;;23.40;44.80;;;;;;4963296;28;20069;-69
2021/01/20 11:51:54;;;;;;;2.13;1.13;;;23.40;45.10;;;;;;4962298;28;20076;-69
2021/01/20 11:54:20;;;;;;;2.22;1.20;;;23.40;45.80;;;;;;4964313;28;20023;-69
2021/01/20 11:56:45;;;;;;;2.13;1.20;;;23.50;45.60;;;;;;4968070;28;20105;-70
2021/01/20 11:59:11;;;;;;;1.80;1.10;;;23.50;45.70;;;;;;4962212;28;20035;-70
2021/01/20 12:01:37;;;;;;;1.88;1.13;;;23.60;46.40;;;;;;4973619;28;20481;-70
2021/01/20 12:04:03;;;;;;;1.92;1.17;;;23.60;46.00;;;;;;4948928;28;20039;-69
2021/01/20 12:06:29;;;;;;;1.27;0.82;;;23.60;46.20;;;;;;4949108;28;20038;-71
2021/01/20 12:08:55;;;;;;;2.10;1.20;;;23.70;46.30;;;;;;4964476;28;20379;-72
2021/01/20 12:11:24;;;;;;;2.92;1.00;;;23.70;46.50;;;;;;4951190;28;20114;-70
2021/01/20 12:13:50;;;;;;;1.77;1.05;;;23.70;46.60;;;;;;4961710;28;20073;-68
2021/01/20 12:16:15;;;;;;;1.55;1.00;;;23.70;46.70;;;;;;4953725;28;20106;-72
2021/01/20 12:18:41;;;;;;;1.88;0.90;;;23.80;46.90;;;;;;4958837;28;20028;-72
2021/01/20 12:21:07;;;;;;;1.80;1.02;;;23.80;47.00;;;;;;4966193;28;20035;-70
2021/01/20 12:23:32;;;;;;;1.75;1.10;;;23.90;47.10;;;;;;4960148;28;20389;-72
2021/01/20 12:25:58;;;;;;;1.52;0.90;;;23.90;47.30;;;;;;4965879;28;20041;-71
2021/01/20 12:28:24;;;;;;;1.83;1.00;;;23.90;47.30;;;;;;4966939;28;20034;-70
2021/01/20 12:30:50;;;;;;;1.60;1.00;;;23.90;47.40;;;;;;4950769;28;20050;-71
2021/01/20 12:33:16;;;;;;;2.90;1.27;;;24.00;47.50;;;;;;4957754;28;20027;-71
2021/01/20 12:35:41;;;;;;;2.33;1.10;;;24.00;47.50;;;;;;4956519;28;20541;-71
2021/01/20 12:38:07;;;;;;;1.88;1.10;;;24.00;47.60;;;;;;4961491;28;20046;-71
2021/01/20 12:40:33;;;;;;;1.75;1.00;;;24.00;47.70;;;;;;4956245;28;20022;-72
2021/01/20 12:42:58;;;;;;;2.20;1.00;;;24.10;47.80;;;;;;4972467;28;20154;-72
2021/01/20 12:45:24;;;;;;;2.40;0.98;;;24.10;47.90;;;;;;4972822;28;20023;-71
2021/01/20 12:47:49;;;;;;;1.27;0.90;;;24.10;47.80;;;;;;4958266;28;20051;-72
2021/01/20 12:50:15;;;;;;;1.30;0.90;;;24.10;47.90;;;;;;4956291;28;20043;-72
2021/01/20 12:52:41;;;;;;;1.27;0.90;;;24.20;47.90;;;;;;4958197;28;20032;-71
2021/01/20 12:55:08;;;;;;;1.50;1.00;;;24.20;47.90;;;;;;4970348;28;20559;-71